createdAt,value
2024-02-24T00:04:43.860Z,5.41
2024-02-24T00:10:07.974Z,5.09
2024-02-24T00:15:30.863Z,5.26
2024-02-24T00:20:55.240Z,5.20
2024-02-24T00:26:18.164Z,4.52
2024-02-24T00:31:42.012Z,4.73
2024-02-24T00:37:06.520Z,4.99
2024-02-24T00:42:29.674Z,4.02
2024-02-24T00:47:55.245Z,2.97
2024-02-24T00:53:19.551Z,3.29
2024-02-24T00:58:42.460Z,2.43
2024-02-24T01:04:05.653Z,2.46
2024-02-24T01:09:29.926Z,3.54
2024-02-24T01:14:57.022Z,3.15
2024-02-24T01:20:21.097Z,2.68
2024-02-24T01:25:46.874Z,1.45
2024-02-24T01:31:09.743Z,1.41
2024-02-24T01:36:32.870Z,1.31
2024-02-24T01:41:57.161Z,1.96
2024-02-24T01:47:20.428Z,2.50
2024-02-24T01:52:47.539Z,3.17
2024-02-24T01:58:12.227Z,3.16
2024-02-24T02:03:35.766Z,2.59
2024-02-24T02:08:58.659Z,2.66
2024-02-24T02:14:22.931Z,2.63
2024-02-24T02:19:46.072Z,2.66
2024-02-24T02:25:12.619Z,2.35
2024-02-24T02:30:35.493Z,2.35
2024-02-24T02:35:58.327Z,1.34
2024-02-24T02:41:22.583Z,0.96
2024-02-24T02:46:47.773Z,0.80
2024-02-24T02:52:10.619Z,1.21
2024-02-24T02:57:34.814Z,1.12
2024-02-24T03:02:57.700Z,0.77
2024-02-24T03:08:20.536Z,1.74
2024-02-24T03:13:44.697Z,1.98
2024-02-24T03:19:08.331Z,2.38
2024-02-24T03:24:31.130Z,1.31
2024-02-24T03:29:55.507Z,1.31
2024-02-24T03:35:18.495Z,1.82
2024-02-24T03:40:41.608Z,1.45
2024-02-24T03:46:06.770Z,1.04
2024-02-24T03:51:29.647Z,1.28
2024-02-24T03:56:53.180Z,1.52
2024-02-24T04:02:17.431Z,2.00
2024-02-24T04:07:40.371Z,1.54
2024-02-24T04:13:03.190Z,2.84
2024-02-24T04:18:27.543Z,3.38
2024-02-24T04:23:50.788Z,3.18
2024-02-24T04:29:13.660Z,3.62
2024-02-24T04:34:40.144Z,2.98
2024-02-24T04:40:03.025Z,3.73
2024-02-24T04:45:28.989Z,4.01
2024-02-24T04:50:53.249Z,4.04
2024-02-24T04:56:17.918Z,4.18
2024-02-24T05:01:42.527Z,3.83
2024-02-24T05:07:06.855Z,3.48
2024-02-24T05:12:32.331Z,3.69
2024-02-24T05:17:55.349Z,2.90
2024-02-24T05:23:19.627Z,3.07
2024-02-24T05:28:42.484Z,3.44
2024-02-24T05:34:06.350Z,3.49
2024-02-24T05:39:30.596Z,3.39
2024-02-24T05:44:53.580Z,2.59
2024-02-24T05:50:16.684Z,2.61
2024-02-24T05:55:40.954Z,3.12
2024-02-24T06:01:04.617Z,3.25
2024-02-24T06:06:32.319Z,2.53
2024-02-24T06:11:56.644Z,1.76
2024-02-24T06:17:19.797Z,2.63
2024-02-24T06:22:42.655Z,2.44
2024-02-24T06:28:11.517Z,2.49
2024-02-24T06:33:34.659Z,3.01
2024-02-24T06:38:58.128Z,3.42
2024-02-24T06:44:22.332Z,2.88
2024-02-24T06:49:46.420Z,3.31
2024-02-24T06:55:09.663Z,3.49
2024-02-24T07:00:33.925Z,3.75
2024-02-24T07:05:56.982Z,3.86
2024-02-24T07:11:20.105Z,4.14
2024-02-24T07:16:44.457Z,3.99
2024-02-24T07:22:07.310Z,4.48
2024-02-24T07:27:30.605Z,4.67
2024-02-24T07:32:54.944Z,5.16
2024-02-24T07:38:17.954Z,5.18
2024-02-24T07:43:40.838Z,5.61
2024-02-24T07:49:05.281Z,5.36
2024-02-24T07:54:28.176Z,5.84
2024-02-24T07:59:51.066Z,5.86
2024-02-24T08:05:15.398Z,6.37
2024-02-24T08:10:38.313Z,6.65
2024-02-24T08:16:05.858Z,6.33
2024-02-24T08:21:32.400Z,6.73
2024-02-24T08:26:58.251Z,6.59
2024-02-24T08:32:21.262Z,6.56
2024-02-24T08:37:45.572Z,6.80
2024-02-24T08:43:08.483Z,6.81
2024-02-24T08:48:31.380Z,6.99
2024-02-24T08:53:55.908Z,7.66
2024-02-24T08:59:18.884Z,6.89
2024-02-24T09:04:41.839Z,6.76
2024-02-24T09:10:09.031Z,7.02
2024-02-24T09:15:32.534Z,7.06
2024-02-24T09:20:55.558Z,7.66
2024-02-24T09:26:20.366Z,7.89
2024-02-24T09:31:43.178Z,8.38
2024-02-24T09:37:06.656Z,9.10
2024-02-24T09:42:30.881Z,9.20
2024-02-24T09:47:55.261Z,9.09
2024-02-24T09:53:18.290Z,9.34
2024-02-24T09:58:43.686Z,9.01
2024-02-24T10:04:08.230Z,8.90
2024-02-24T10:09:31.480Z,9.20
2024-02-24T10:14:56.929Z,9.47
2024-02-24T10:20:19.849Z,9.77
2024-02-24T10:25:42.851Z,10.10
2024-02-24T10:31:07.428Z,11.27
2024-02-24T10:36:30.460Z,11.87
2024-02-24T10:41:54.773Z,13.60
2024-02-24T10:47:19.401Z,16.00
2024-02-24T10:52:42.907Z,14.30
2024-02-24T10:58:06.458Z,12.88
2024-02-24T11:03:32.005Z,12.60
2024-02-24T11:08:55.540Z,13.93
2024-02-24T11:14:18.793Z,13.01
2024-02-24T11:19:44.301Z,11.12
2024-02-24T11:25:07.920Z,10.60
2024-02-24T11:30:46.825Z,11.35
2024-02-24T11:36:12.779Z,12.72
2024-02-24T11:41:38.012Z,11.58
2024-02-24T11:47:00.910Z,12.15
2024-02-24T11:52:25.401Z,11.87
2024-02-24T11:57:48.325Z,11.58
2024-02-24T12:03:13.148Z,9.99
2024-02-24T12:08:38.071Z,10.20
2024-02-24T12:14:01.023Z,9.90
2024-02-24T12:19:26.294Z,9.98
2024-02-24T12:24:50.655Z,9.65
2024-02-24T12:30:14.410Z,9.95
2024-02-24T12:35:38.730Z,10.61
2024-02-24T12:41:08.669Z,10.93
2024-02-24T12:46:31.654Z,10.85
2024-02-24T12:51:54.920Z,11.62
2024-02-24T12:57:19.166Z,15.74
2024-02-24T13:02:42.569Z,16.88
2024-02-24T13:08:06.291Z,17.29
2024-02-24T13:13:30.536Z,13.39
2024-02-24T13:18:53.445Z,14.12
2024-02-24T13:24:16.335Z,17.91
2024-02-24T13:29:40.673Z,18.76
2024-02-24T13:35:05.132Z,16.73
2024-02-24T13:40:28.126Z,13.72
2024-02-24T13:45:52.485Z,13.31
2024-02-24T13:51:15.354Z,11.97
2024-02-24T13:56:38.301Z,11.40
2024-02-24T14:02:02.541Z,11.47
2024-02-24T14:07:25.470Z,15.32
2024-02-24T14:12:48.348Z,17.27
2024-02-24T14:18:12.675Z,14.32
2024-02-24T14:23:35.612Z,16.65
2024-02-24T14:29:01.375Z,14.45
2024-02-24T14:34:27.024Z,14.06
2024-02-24T14:39:49.784Z,13.77
2024-02-24T14:45:12.681Z,13.65
2024-02-24T14:50:37.160Z,12.82
2024-02-24T14:56:00.229Z,12.75
2024-02-24T15:01:23.169Z,13.99
2024-02-24T15:06:48.358Z,17.98
2024-02-24T15:12:11.346Z,18.18
2024-02-24T15:17:34.262Z,14.52
2024-02-24T15:22:58.559Z,12.77
2024-02-24T15:28:23.443Z,12.80
2024-02-24T15:33:46.291Z,12.36
2024-02-24T15:39:10.640Z,11.75
2024-02-24T15:44:33.627Z,10.79
2024-02-24T15:49:56.667Z,11.09
2024-02-24T15:55:20.901Z,11.99
2024-02-24T16:00:44.678Z,11.74
2024-02-24T16:06:07.917Z,10.46
2024-02-24T16:11:32.479Z,10.35
2024-02-24T16:16:55.498Z,10.70
2024-02-24T16:22:18.361Z,9.95
2024-02-24T16:27:43.383Z,9.65
2024-02-24T16:33:06.515Z,9.79
2024-02-24T16:38:29.572Z,10.16
2024-02-24T16:43:53.815Z,9.98
2024-02-24T16:49:19.204Z,10.02
2024-02-24T16:54:42.324Z,9.77
2024-02-24T17:00:10.024Z,9.69
2024-02-24T17:05:33.138Z,9.37
2024-02-24T17:10:56.086Z,8.85
2024-02-24T17:16:23.565Z,8.89
2024-02-24T17:21:46.510Z,8.81
2024-02-24T17:27:09.568Z,9.03
2024-02-24T17:32:33.960Z,8.54
2024-02-24T17:37:56.924Z,8.71
2024-02-24T17:43:19.829Z,8.50
2024-02-24T17:48:44.233Z,8.35
2024-02-24T17:54:07.297Z,8.22
2024-02-24T17:59:30.475Z,7.39
2024-02-24T18:04:57.488Z,7.50
2024-02-24T18:10:20.755Z,7.34
2024-02-24T18:15:50.352Z,7.72
2024-02-24T18:21:19.150Z,7.83
2024-02-24T18:26:43.216Z,7.55
2024-02-24T18:32:06.534Z,7.36
2024-02-24T18:37:30.842Z,7.31
2024-02-24T18:42:53.733Z,7.43
2024-02-24T18:48:16.891Z,7.52
2024-02-24T18:53:41.234Z,7.53
2024-02-24T18:59:06.743Z,7.44
2024-02-24T19:04:29.659Z,7.41
2024-02-24T19:09:55.591Z,7.66
2024-02-24T19:15:19.983Z,7.91
2024-02-24T19:20:42.994Z,7.57
2024-02-24T19:26:07.579Z,7.25
2024-02-24T19:31:30.502Z,7.59
2024-02-24T19:36:53.529Z,7.39
2024-02-24T19:42:17.738Z,7.65
2024-02-24T19:47:41.259Z,7.77
2024-02-24T19:53:04.469Z,7.61
2024-02-24T19:58:34.886Z,7.58
2024-02-24T20:04:02.269Z,7.55
2024-02-24T20:09:25.184Z,7.61
2024-02-24T20:14:51.037Z,7.25
2024-02-24T20:20:14.068Z,7.25
2024-02-24T20:25:36.984Z,6.89
2024-02-24T20:31:01.320Z,7.08
2024-02-24T20:36:24.228Z,6.25
2024-02-24T20:41:47.218Z,5.43
2024-02-24T20:47:11.594Z,5.21
2024-02-24T20:52:36.969Z,5.42
2024-02-24T20:57:59.867Z,6.11
2024-02-24T21:03:24.172Z,6.31
2024-02-24T21:08:47.184Z,6.63
2024-02-24T21:14:17.832Z,6.63
2024-02-24T21:19:42.346Z,6.74
2024-02-24T21:25:08.410Z,6.59
2024-02-24T21:30:31.392Z,6.31
2024-02-24T21:35:55.620Z,6.25
2024-02-24T21:41:18.762Z,5.22
2024-02-24T21:46:41.823Z,4.75
2024-02-24T21:52:08.622Z,5.36
2024-02-24T21:57:33.292Z,5.36
2024-02-24T22:02:56.455Z,5.55
2024-02-24T22:08:20.911Z,5.51
2024-02-24T22:13:45.506Z,5.36
2024-02-24T22:19:08.579Z,4.82
2024-02-24T22:24:32.923Z,4.98
2024-02-24T22:30:05.091Z,5.36
2024-02-24T22:35:36.146Z,5.60
2024-02-24T22:41:00.472Z,5.62
2024-02-24T22:46:24.368Z,5.58
2024-02-24T22:51:47.253Z,5.75
2024-02-24T22:57:11.556Z,5.68
2024-02-24T23:02:34.454Z,5.79
2024-02-24T23:07:57.305Z,5.72
2024-02-24T23:13:21.884Z,5.54
2024-02-24T23:18:45.544Z,5.50
2024-02-24T23:24:08.812Z,5.30
2024-02-24T23:29:33.224Z,5.46
2024-02-24T23:34:56.135Z,5.84
2024-02-24T23:40:19.174Z,5.90
2024-02-24T23:45:44.201Z,6.09
2024-02-24T23:51:07.136Z,5.82
2024-02-24T23:56:30.180Z,5.79
